createdAt,value
2024-02-10T00:02:17.261Z,1.02
2024-02-10T00:04:44.126Z,0.93
2024-02-10T00:07:11.110Z,0.80
2024-02-10T00:09:38.883Z,0.60
2024-02-10T00:12:07.048Z,0.90
2024-02-10T00:14:35.465Z,0.80
2024-02-10T00:17:04.410Z,0.82
2024-02-10T00:19:30.964Z,0.70
2024-02-10T00:21:57.935Z,1.30
2024-02-10T00:24:27.770Z,0.47
2024-02-10T00:26:54.374Z,0.68
2024-02-10T00:29:24.572Z,0.70
2024-02-10T00:31:51.152Z,0.95
2024-02-10T00:34:17.688Z,0.80
2024-02-10T00:36:45.793Z,1.20
2024-02-10T00:39:13.881Z,0.90
2024-02-10T00:41:40.331Z,0.85
2024-02-10T00:44:06.734Z,1.20
2024-02-10T00:46:33.305Z,1.15
2024-02-10T00:48:59.824Z,0.93
2024-02-10T00:51:31.157Z,0.60
2024-02-10T00:53:57.646Z,0.98
2024-02-10T00:56:25.625Z,1.10
2024-02-10T00:58:52.197Z,0.85
2024-02-10T01:01:21.989Z,0.70
2024-02-10T01:03:49.688Z,1.20
2024-02-10T01:06:17.933Z,0.73
2024-02-10T01:08:49.860Z,0.98
2024-02-10T01:11:24.872Z,0.93
2024-02-10T01:13:51.946Z,0.83
2024-02-10T01:16:19.376Z,1.27
2024-02-10T01:18:49.945Z,0.93
2024-02-10T01:21:16.869Z,0.98
2024-02-10T01:23:43.807Z,0.70
2024-02-10T01:26:13.240Z,1.23
2024-02-10T01:28:41.022Z,0.75
2024-02-10T01:31:07.535Z,0.85
2024-02-10T01:33:34.851Z,1.23
2024-02-10T01:36:04.453Z,0.90
2024-02-10T01:38:31.837Z,0.70
2024-02-10T01:40:58.307Z,1.00
2024-02-10T01:43:24.799Z,1.17
2024-02-10T01:45:51.517Z,0.65
2024-02-10T01:48:19.731Z,1.45
2024-02-10T01:50:48.222Z,1.27
2024-02-10T01:53:14.825Z,1.10
2024-02-10T01:55:42.944Z,0.60
2024-02-10T01:58:12.101Z,0.88
2024-02-10T02:00:39.702Z,1.00
2024-02-10T02:03:06.261Z,1.00
2024-02-10T02:05:34.226Z,1.00
2024-02-10T02:08:05.654Z,1.08
2024-02-10T02:10:33.143Z,0.95
2024-02-10T02:12:59.676Z,0.73
2024-02-10T02:15:31.254Z,0.90
2024-02-10T02:17:58.833Z,1.15
2024-02-10T02:20:29.788Z,0.80
2024-02-10T02:22:56.642Z,0.60
2024-02-10T02:25:24.376Z,0.82
2024-02-10T02:27:50.862Z,0.97
2024-02-10T02:30:17.697Z,0.70
2024-02-10T02:32:44.406Z,0.90
2024-02-10T02:35:11.073Z,0.77
2024-02-10T02:37:44.475Z,0.80
2024-02-10T02:40:16.095Z,0.70
2024-02-10T02:42:42.725Z,0.73
2024-02-10T02:45:11.786Z,0.73
2024-02-10T02:47:38.715Z,0.47
2024-02-10T02:50:10.198Z,1.13
2024-02-10T02:52:37.816Z,0.70
2024-02-10T02:55:05.146Z,0.40
2024-02-10T02:57:34.889Z,0.93
2024-02-10T03:00:01.460Z,0.50
2024-02-10T03:02:31.498Z,0.57
2024-02-10T03:04:58.021Z,0.80
2024-02-10T03:07:31.385Z,0.75
2024-02-10T03:09:57.886Z,1.15
2024-02-10T03:12:24.293Z,0.77
2024-02-10T03:14:50.924Z,0.77
2024-02-10T03:17:17.370Z,0.87
2024-02-10T03:19:47.204Z,1.05
2024-02-10T03:22:14.268Z,0.75
2024-02-10T03:24:43.285Z,1.00
2024-02-10T03:27:09.751Z,0.70
2024-02-10T03:29:36.199Z,0.87
2024-02-10T03:32:05.075Z,0.82
2024-02-10T03:34:31.565Z,0.73
2024-02-10T03:36:58.076Z,0.90
2024-02-10T03:39:25.474Z,0.75
2024-02-10T03:41:53.155Z,0.73
2024-02-10T03:44:23.761Z,0.68
2024-02-10T03:46:54.844Z,0.60
2024-02-10T03:49:21.798Z,1.10
2024-02-10T03:51:48.320Z,1.05
2024-02-10T03:54:15.047Z,0.83
2024-02-10T03:56:48.244Z,0.60
2024-02-10T03:59:16.219Z,0.60
2024-02-10T04:01:48.506Z,0.68
2024-02-10T04:04:15.218Z,0.70
2024-02-10T04:06:41.819Z,0.70
2024-02-10T04:09:08.497Z,0.68
2024-02-10T04:11:35.302Z,1.10
2024-02-10T04:14:01.976Z,0.98
2024-02-10T04:16:28.843Z,0.82
2024-02-10T04:18:55.555Z,0.97
2024-02-10T04:21:22.150Z,0.70
2024-02-10T04:23:48.553Z,0.85
2024-02-10T04:26:15.456Z,0.68
2024-02-10T04:28:41.950Z,0.93
2024-02-10T04:31:08.848Z,1.03
2024-02-10T04:33:35.614Z,0.70
2024-02-10T04:36:02.754Z,0.77
2024-02-10T04:38:29.295Z,0.57
2024-02-10T04:40:58.346Z,0.88
2024-02-10T04:43:24.856Z,0.80
2024-02-10T04:45:51.334Z,0.82
2024-02-10T04:48:21.201Z,0.60
2024-02-10T04:50:48.159Z,1.13
2024-02-10T04:53:16.715Z,0.80
2024-02-10T04:55:43.490Z,0.50
2024-02-10T04:58:10.343Z,0.77
2024-02-10T05:00:36.782Z,0.60
2024-02-10T05:03:04.521Z,0.50
2024-02-10T05:05:31.163Z,1.10
2024-02-10T05:07:58.503Z,0.70
2024-02-10T05:10:25.943Z,0.75
2024-02-10T05:12:53.374Z,0.50
2024-02-10T05:15:23.950Z,0.80
2024-02-10T05:17:51.880Z,0.80
2024-02-10T05:20:20.682Z,0.80
2024-02-10T05:22:49.383Z,0.52
2024-02-10T05:25:16.689Z,0.82
2024-02-10T05:27:46.742Z,0.75
2024-02-10T05:30:25.832Z,0.90
2024-02-10T05:32:53.814Z,0.70
2024-02-10T05:35:21.588Z,0.60
2024-02-10T05:37:54.947Z,0.73
2024-02-10T05:40:22.585Z,0.77
2024-02-10T05:42:51.179Z,0.90
2024-02-10T05:45:21.704Z,0.80
2024-02-10T05:47:50.874Z,0.50
2024-02-10T05:50:23.736Z,0.80
2024-02-10T05:52:52.545Z,0.70
2024-02-10T05:55:28.325Z,0.52
2024-02-10T05:58:05.465Z,0.77
2024-02-10T06:00:33.138Z,0.60
2024-02-10T06:03:00.683Z,0.50
2024-02-10T06:05:29.482Z,0.82
2024-02-10T06:07:58.177Z,0.50
2024-02-10T06:10:25.447Z,0.73
2024-02-10T06:12:53.663Z,0.50
2024-02-10T06:15:21.171Z,0.88
2024-02-10T06:17:53.977Z,1.58
2024-02-10T06:20:24.118Z,0.80
2024-02-10T06:22:53.257Z,0.60
2024-02-10T06:25:30.101Z,0.68
2024-02-10T06:28:00.526Z,0.65
2024-02-10T06:30:34.058Z,0.50
2024-02-10T06:33:01.168Z,0.55
2024-02-10T06:35:28.378Z,0.90
2024-02-10T06:37:56.350Z,0.50
2024-02-10T06:40:23.985Z,0.70
2024-02-10T06:42:52.583Z,0.60
2024-02-10T06:45:23.291Z,0.65
2024-02-10T06:47:53.298Z,0.60
2024-02-10T06:50:28.123Z,0.57
2024-02-10T06:52:55.466Z,0.68
2024-02-10T06:55:24.839Z,0.80
2024-02-10T06:57:53.911Z,0.50
2024-02-10T07:00:20.921Z,0.90
2024-02-10T07:02:47.865Z,0.77
2024-02-10T07:05:18.674Z,1.02
2024-02-10T07:07:48.032Z,0.73
2024-02-10T07:10:15.931Z,0.90
2024-02-10T07:12:43.791Z,0.57
2024-02-10T07:15:15.374Z,0.63
2024-02-10T07:17:44.600Z,0.60
2024-02-10T07:20:22.398Z,0.60
2024-02-10T07:22:56.704Z,0.82
2024-02-10T07:25:24.194Z,0.83
2024-02-10T07:27:52.130Z,0.77
2024-02-10T07:30:19.641Z,1.27
2024-02-10T07:32:46.790Z,0.50
2024-02-10T07:35:14.058Z,0.80
2024-02-10T07:37:41.049Z,0.90
2024-02-10T07:40:08.412Z,0.60
2024-02-10T07:42:37.671Z,0.85
2024-02-10T07:45:04.540Z,0.73
2024-02-10T07:47:31.115Z,1.17
2024-02-10T07:49:59.636Z,0.70
2024-02-10T07:52:32.152Z,0.68
2024-02-10T07:54:59.305Z,0.60
2024-02-10T07:57:26.677Z,0.75
2024-02-10T07:59:54.498Z,0.70
2024-02-10T08:02:26.874Z,0.90
2024-02-10T08:04:55.648Z,0.73
2024-02-10T08:07:23.526Z,0.90
2024-02-10T08:09:52.888Z,0.85
2024-02-10T08:12:24.243Z,0.75
2024-02-10T08:14:52.066Z,1.13
2024-02-10T08:17:21.647Z,0.82
2024-02-10T08:19:52.253Z,1.00
2024-02-10T08:22:19.856Z,1.15
2024-02-10T08:24:48.531Z,0.80
2024-02-10T08:27:17.006Z,1.17
2024-02-10T08:29:44.282Z,2.53
2024-02-10T08:32:17.338Z,5.50
2024-02-10T08:34:44.130Z,4.93
2024-02-10T08:37:13.325Z,4.20
2024-02-10T08:39:47.420Z,2.40
2024-02-10T08:42:15.069Z,1.63
2024-02-10T08:44:41.884Z,1.25
2024-02-10T08:47:08.796Z,1.30
2024-02-10T08:49:39.614Z,1.45
2024-02-10T08:52:16.618Z,0.70
2024-02-10T08:54:44.442Z,1.00
2024-02-10T08:57:11.289Z,1.10
2024-02-10T08:59:42.466Z,1.58
2024-02-10T09:02:09.507Z,1.08
2024-02-10T09:04:37.968Z,0.90
2024-02-10T09:07:04.563Z,0.80
2024-02-10T09:09:31.544Z,0.88
2024-02-10T09:11:57.959Z,1.02
2024-02-10T09:14:24.513Z,0.90
2024-02-10T09:16:51.032Z,0.90
2024-02-10T09:19:22.099Z,1.08
2024-02-10T09:21:55.580Z,1.08
2024-02-10T09:24:26.852Z,1.02
2024-02-10T09:26:59.605Z,1.00
2024-02-10T09:29:26.820Z,1.13
2024-02-10T09:31:53.988Z,1.02
2024-02-10T09:34:22.185Z,0.88
2024-02-10T09:36:48.972Z,1.00
2024-02-10T09:39:15.491Z,0.70
2024-02-10T09:41:42.637Z,1.17
2024-02-10T09:44:13.123Z,0.82
2024-02-10T09:46:40.291Z,0.93
2024-02-10T09:49:18.623Z,0.93
2024-02-10T09:51:45.897Z,1.15
2024-02-10T09:54:16.329Z,0.20
2024-02-10T09:56:44.684Z,1.42
2024-02-10T09:59:28.056Z,1.20
2024-02-10T10:02:00.801Z,1.38
2024-02-10T10:04:27.512Z,1.17
2024-02-10T10:06:54.335Z,1.37
2024-02-10T10:09:21.395Z,1.20
2024-02-10T10:11:50.122Z,1.10
2024-02-10T10:14:20.630Z,1.40
2024-02-10T10:16:58.893Z,0.80
2024-02-10T10:19:30.256Z,1.17
2024-02-10T10:21:57.878Z,0.90
2024-02-10T10:24:26.252Z,0.98
2024-02-10T10:26:57.210Z,0.77
2024-02-10T10:29:24.402Z,0.90
2024-02-10T10:31:52.826Z,1.00
2024-02-10T10:34:20.417Z,1.10
2024-02-10T10:36:53.313Z,1.23
2024-02-10T10:39:22.427Z,0.73
2024-02-10T10:41:49.086Z,1.02
2024-02-10T10:44:15.979Z,1.60
2024-02-10T10:46:42.847Z,1.25
2024-02-10T10:49:12.707Z,1.20
2024-02-10T10:52:00.846Z,1.70
2024-02-10T10:54:35.138Z,2.28
2024-02-10T10:57:06.844Z,1.80
2024-02-10T10:59:37.120Z,1.80
2024-02-10T11:02:08.982Z,1.42
2024-02-10T11:04:35.823Z,1.15
2024-02-10T11:07:12.390Z,1.20
2024-02-10T11:09:48.865Z,1.50
2024-02-10T11:12:16.378Z,1.60
2024-02-10T11:14:54.001Z,1.15
2024-02-10T11:17:21.361Z,1.58
2024-02-10T11:20:12.213Z,1.17
2024-02-10T11:22:41.514Z,1.40
2024-02-10T11:25:16.642Z,1.45
2024-02-10T11:27:47.353Z,0.95
2024-02-10T11:30:14.135Z,0.80
2024-02-10T11:32:49.920Z,1.20
2024-02-10T11:35:16.946Z,1.00
2024-02-10T11:37:43.669Z,1.30
2024-02-10T11:40:16.389Z,1.60
2024-02-10T11:42:44.083Z,1.00
2024-02-10T11:45:10.662Z,1.13
2024-02-10T11:47:37.430Z,0.90
2024-02-10T11:50:05.278Z,0.98
2024-02-10T11:52:33.357Z,1.10
2024-02-10T11:55:00.041Z,1.27
2024-02-10T11:57:28.535Z,1.10
2024-02-10T11:59:56.921Z,1.20
2024-02-10T12:02:24.698Z,1.27
2024-02-10T12:04:51.876Z,1.30
2024-02-10T12:07:18.769Z,1.05
2024-02-10T12:09:45.179Z,1.40
2024-02-10T12:12:13.690Z,1.40
2024-02-10T12:14:40.996Z,1.50
2024-02-10T12:17:07.835Z,1.80
2024-02-10T12:19:37.755Z,2.30
2024-02-10T12:22:06.592Z,1.33
2024-02-10T12:24:33.179Z,1.23
2024-02-10T12:26:59.664Z,2.40
2024-02-10T12:29:29.696Z,1.60
2024-02-10T12:31:56.224Z,1.35
2024-02-10T12:34:22.682Z,1.35
2024-02-10T12:36:49.231Z,1.37
2024-02-10T12:39:16.905Z,1.60
2024-02-10T12:41:46.473Z,1.83
2024-02-10T12:44:13.138Z,1.20
2024-02-10T12:46:39.896Z,1.40
2024-02-10T12:49:09.703Z,1.40
2024-02-10T12:51:36.841Z,1.40
2024-02-10T12:54:03.591Z,1.90
2024-02-10T12:56:31.006Z,1.45
2024-02-10T12:58:58.305Z,1.50
2024-02-10T13:01:31.958Z,1.73
2024-02-10T13:04:03.769Z,1.25
2024-02-10T13:06:32.101Z,1.30
2024-02-10T13:08:59.774Z,1.15
2024-02-10T13:11:26.612Z,1.48
2024-02-10T13:13:56.350Z,1.47
2024-02-10T13:16:23.166Z,1.10
2024-02-10T13:18:49.804Z,0.80
2024-02-10T13:21:18.512Z,1.13
2024-02-10T13:23:45.387Z,1.17
2024-02-10T13:26:14.706Z,1.13
2024-02-10T13:28:42.886Z,0.57
2024-02-10T13:31:09.900Z,0.93
2024-02-10T13:33:40.503Z,1.48
2024-02-10T13:36:15.592Z,1.02
2024-02-10T13:39:00.759Z,0.80
2024-02-10T13:41:45.538Z,0.90
2024-02-10T13:44:30.473Z,1.17
2024-02-10T13:47:15.409Z,1.15
2024-02-10T13:50:03.880Z,0.90
2024-02-10T13:52:48.999Z,1.00
2024-02-10T13:55:33.932Z,0.70
2024-02-10T13:58:12.841Z,1.00
2024-02-10T14:00:41.798Z,0.73
2024-02-10T14:03:12.638Z,1.00
2024-02-10T14:05:54.549Z,0.97
2024-02-10T14:08:38.238Z,0.93
2024-02-10T14:11:20.879Z,1.08
2024-02-10T14:13:52.006Z,0.93
2024-02-10T14:16:28.257Z,1.02
2024-02-10T14:18:54.782Z,1.10
2024-02-10T14:21:30.203Z,1.25
2024-02-10T14:23:56.847Z,1.05
2024-02-10T14:26:38.588Z,0.93
2024-02-10T14:29:07.976Z,1.00
2024-02-10T14:31:44.812Z,0.90
2024-02-10T14:34:16.532Z,0.93
2024-02-10T14:36:52.524Z,1.13
2024-02-10T14:39:20.417Z,0.68
2024-02-10T14:41:47.354Z,0.52
2024-02-10T14:44:14.062Z,0.60
2024-02-10T14:46:44.412Z,0.85
2024-02-10T14:49:17.372Z,0.95
2024-02-10T14:51:43.987Z,1.45
2024-02-10T14:54:11.307Z,0.57
2024-02-10T14:56:39.626Z,0.83
2024-02-10T14:59:06.780Z,1.10
2024-02-10T15:01:35.341Z,0.60
2024-02-10T15:04:07.256Z,1.00
2024-02-10T15:06:36.437Z,1.77
2024-02-10T15:09:03.542Z,1.10
2024-02-10T15:11:30.312Z,2.15
2024-02-10T15:13:56.968Z,1.88
2024-02-10T15:16:24.831Z,0.98
2024-02-10T15:18:54.330Z,0.85
2024-02-10T15:21:21.951Z,1.07
2024-02-10T15:23:51.621Z,0.85
2024-02-10T15:26:21.524Z,1.33
2024-02-10T15:28:48.973Z,0.63
2024-02-10T15:31:20.421Z,0.98
2024-02-10T15:33:57.961Z,1.27
2024-02-10T15:36:28.149Z,0.80
2024-02-10T15:39:01.055Z,1.33
2024-02-10T15:41:28.289Z,1.15
2024-02-10T15:43:54.743Z,1.35
2024-02-10T15:46:21.190Z,1.33
2024-02-10T15:48:54.650Z,1.10
2024-02-10T15:51:22.220Z,1.33
2024-02-10T15:53:48.717Z,1.40
2024-02-10T15:56:15.231Z,2.25
2024-02-10T15:58:50.417Z,2.57
2024-02-10T16:01:18.646Z,3.90
2024-02-10T16:03:45.195Z,4.45
2024-02-10T16:06:11.904Z,4.88
2024-02-10T16:08:50.546Z,5.13
2024-02-10T16:11:17.671Z,2.90
2024-02-10T16:13:45.657Z,3.17
2024-02-10T16:16:17.730Z,3.90
2024-02-10T16:18:47.501Z,3.55
2024-02-10T16:21:27.032Z,3.38
2024-02-10T16:23:54.702Z,3.07
2024-02-10T16:26:21.500Z,2.60
2024-02-10T16:28:51.647Z,2.20
2024-02-10T16:31:20.000Z,1.80
2024-02-10T16:33:48.310Z,2.00
2024-02-10T16:36:19.851Z,1.70
2024-02-10T16:38:46.291Z,3.10
2024-02-10T16:41:19.988Z,2.60
2024-02-10T16:43:46.706Z,2.42
2024-02-10T16:46:17.514Z,2.72
2024-02-10T16:48:48.740Z,4.03
2024-02-10T16:51:33.638Z,2.97
2024-02-10T16:54:05.892Z,2.35
2024-02-10T16:56:35.729Z,1.42
2024-02-10T16:59:03.694Z,1.73
2024-02-10T17:01:31.712Z,1.70
2024-02-10T17:03:58.743Z,1.80
2024-02-10T17:06:25.326Z,2.30
2024-02-10T17:08:51.818Z,2.33
2024-02-10T17:11:18.310Z,2.00
2024-02-10T17:13:47.428Z,1.90
2024-02-10T17:16:16.451Z,1.90
2024-02-10T17:18:43.033Z,2.35
2024-02-10T17:21:09.546Z,2.70
2024-02-10T17:23:35.989Z,3.28
2024-02-10T17:26:08.585Z,3.60
2024-02-10T17:28:35.330Z,5.00
2024-02-10T17:31:01.851Z,4.40
2024-02-10T17:33:28.304Z,5.00
2024-02-10T17:35:55.008Z,4.65
2024-02-10T17:38:24.902Z,4.13
2024-02-10T17:40:51.392Z,3.75
2024-02-10T17:43:19.246Z,3.90
2024-02-10T17:45:46.137Z,3.38
2024-02-10T17:48:23.685Z,4.10
2024-02-10T17:50:51.649Z,6.63
2024-02-10T17:53:23.984Z,5.15
2024-02-10T17:55:56.574Z,5.30
2024-02-10T17:58:24.379Z,4.82
2024-02-10T18:00:52.809Z,4.30
2024-02-10T18:03:20.943Z,4.30
2024-02-10T18:05:48.547Z,4.90
2024-02-10T18:08:17.387Z,4.07
2024-02-10T18:10:43.823Z,4.50
2024-02-10T18:13:10.381Z,3.80
2024-02-10T18:15:37.120Z,3.60
2024-02-10T18:18:03.848Z,4.07
2024-02-10T18:20:30.556Z,3.92
2024-02-10T18:22:57.751Z,3.58
2024-02-10T18:25:25.357Z,3.60
2024-02-10T18:27:54.459Z,4.97
2024-02-10T18:30:24.484Z,3.65
2024-02-10T18:32:51.523Z,3.30
2024-02-10T18:35:25.353Z,3.45
2024-02-10T18:37:55.943Z,3.60
2024-02-10T18:40:26.638Z,4.87
2024-02-10T18:42:58.151Z,3.63
2024-02-10T18:45:25.287Z,3.45
2024-02-10T18:47:52.537Z,3.58
2024-02-10T18:50:20.172Z,2.85
2024-02-10T18:52:47.834Z,3.07
2024-02-10T18:55:20.110Z,3.95
2024-02-10T18:57:47.488Z,3.42
2024-02-10T19:00:20.267Z,3.53
2024-02-10T19:02:50.275Z,4.18
2024-02-10T19:05:18.472Z,4.07
2024-02-10T19:07:45.755Z,4.03
2024-02-10T19:10:12.435Z,5.10
2024-02-10T19:12:38.991Z,4.15
2024-02-10T19:15:09.819Z,4.50
2024-02-10T19:17:39.565Z,5.37
2024-02-10T19:20:07.279Z,6.65
2024-02-10T19:22:36.207Z,6.10
2024-02-10T19:25:16.787Z,4.75
2024-02-10T19:27:43.573Z,4.90
2024-02-10T19:30:10.937Z,5.10
2024-02-10T19:32:41.607Z,4.05
2024-02-10T19:35:22.063Z,4.50
2024-02-10T19:37:50.204Z,5.13
2024-02-10T19:40:18.024Z,6.38
2024-02-10T19:42:45.628Z,5.23
2024-02-10T19:45:14.887Z,4.60
2024-02-10T19:47:42.803Z,4.90
2024-02-10T19:50:10.256Z,4.72
2024-02-10T19:52:39.115Z,5.80
2024-02-10T19:55:05.752Z,4.83
2024-02-10T19:57:33.787Z,7.35
2024-02-10T20:00:00.458Z,4.90
2024-02-10T20:02:29.782Z,7.88
2024-02-10T20:04:56.315Z,6.38
2024-02-10T20:07:22.850Z,5.70
2024-02-10T20:09:49.484Z,5.88
2024-02-10T20:12:19.134Z,6.13
2024-02-10T20:14:45.728Z,6.03
2024-02-10T20:17:12.881Z,5.22
2024-02-10T20:19:39.905Z,3.37
2024-02-10T20:22:10.028Z,7.07
2024-02-10T20:24:38.404Z,4.95
2024-02-10T20:27:09.355Z,3.65
2024-02-10T20:29:38.652Z,6.47
2024-02-10T20:32:08.747Z,6.13
2024-02-10T20:34:35.722Z,5.97
2024-02-10T20:37:06.141Z,6.13
2024-02-10T20:39:34.497Z,4.32
2024-02-10T20:42:01.106Z,4.28
2024-02-10T20:44:27.828Z,5.47
2024-02-10T20:46:57.528Z,10.40
2024-02-10T20:49:24.624Z,7.55
2024-02-10T20:51:56.007Z,3.92
2024-02-10T20:54:22.577Z,3.15
2024-02-10T20:56:50.643Z,3.57
2024-02-10T20:59:19.825Z,3.78
2024-02-10T21:01:46.364Z,3.42
2024-02-10T21:04:14.052Z,5.18
2024-02-10T21:06:44.942Z,3.30
2024-02-10T21:09:14.109Z,3.37
2024-02-10T21:11:41.618Z,3.00
2024-02-10T21:14:15.109Z,3.53
2024-02-10T21:16:43.006Z,3.30
2024-02-10T21:19:10.366Z,2.97
2024-02-10T21:21:42.349Z,3.23
2024-02-10T21:24:09.919Z,3.30
2024-02-10T21:26:37.115Z,2.67
2024-02-10T21:29:06.825Z,3.00
2024-02-10T21:31:37.410Z,3.47
2024-02-10T21:34:05.932Z,3.13
2024-02-10T21:36:35.386Z,3.13
2024-02-10T21:39:06.044Z,2.88
2024-02-10T21:41:32.518Z,3.67
2024-02-10T21:43:59.037Z,3.20
2024-02-10T21:46:27.517Z,2.90
2024-02-10T21:48:54.229Z,3.83
2024-02-10T21:51:20.982Z,3.15
2024-02-10T21:53:47.425Z,4.03
2024-02-10T21:56:14.937Z,3.63
2024-02-10T21:58:51.514Z,3.40
2024-02-10T22:01:19.331Z,3.22
2024-02-10T22:03:46.109Z,3.70
2024-02-10T22:06:13.024Z,3.85
2024-02-10T22:08:39.591Z,3.50
2024-02-10T22:11:06.494Z,4.20
2024-02-10T22:13:33.289Z,3.58
2024-02-10T22:16:00.894Z,3.58
2024-02-10T22:18:30.438Z,3.83
2024-02-10T22:20:58.430Z,3.30
2024-02-10T22:23:24.918Z,3.57
2024-02-10T22:25:51.575Z,3.60
2024-02-10T22:28:18.003Z,3.88
2024-02-10T22:30:44.393Z,4.13
2024-02-10T22:33:11.632Z,4.43
2024-02-10T22:35:38.519Z,3.87
2024-02-10T22:38:08.389Z,3.67
2024-02-10T22:40:41.456Z,3.95
2024-02-10T22:43:10.813Z,4.07
2024-02-10T22:45:38.348Z,4.43
2024-02-10T22:48:11.087Z,4.17
2024-02-10T22:50:44.483Z,4.97
2024-02-10T22:53:14.105Z,3.97
2024-02-10T22:55:44.647Z,5.15
2024-02-10T22:58:11.976Z,4.70
2024-02-10T23:00:46.983Z,4.07
2024-02-10T23:03:15.651Z,4.18
2024-02-10T23:05:42.780Z,4.43
2024-02-10T23:08:13.787Z,3.47
2024-02-10T23:10:43.218Z,4.65
2024-02-10T23:13:16.335Z,5.03
2024-02-10T23:15:43.983Z,4.35
2024-02-10T23:18:11.373Z,3.90
2024-02-10T23:20:42.327Z,5.32
2024-02-10T23:23:14.128Z,3.95
2024-02-10T23:25:44.725Z,4.13
2024-02-10T23:28:17.877Z,3.45
2024-02-10T23:30:46.324Z,4.95
2024-02-10T23:33:13.081Z,4.10
2024-02-10T23:35:43.195Z,4.57
2024-02-10T23:38:14.410Z,4.50
2024-02-10T23:40:43.774Z,3.78
2024-02-10T23:43:13.582Z,3.63
2024-02-10T23:45:41.113Z,3.63
2024-02-10T23:48:10.793Z,4.40
2024-02-10T23:50:37.970Z,4.30
2024-02-10T23:53:10.967Z,4.63
2024-02-10T23:55:39.172Z,3.47
2024-02-10T23:58:05.886Z,2.92
